sensor_id;sensor_type;location;lat;lon;timestamp;temperature;humidity
1700;DHT22;847;48.058;7.810;2022-10-16T00:01:52;15.80;99.00
1700;DHT22;847;48.058;7.810;2022-10-16T00:04:19;15.80;99.00
1700;DHT22;847;48.058;7.810;2022-10-16T00:06:46;15.80;99.00
1700;DHT22;847;48.058;7.810;2022-10-16T00:09:12;15.80;99.00
1700;DHT22;847;48.058;7.810;2022-10-16T00:11:41;15.80;99.00
1700;DHT22;847;48.058;7.810;2022-10-16T00:14:10;15.80;99.00
1700;DHT22;847;48.058;7.810;2022-10-16T00:16:37;15.80;99.00
1700;DHT22;847;48.058;7.810;2022-10-16T00:19:04;15.80;99.00
1700;DHT22;847;48.058;7.810;2022-10-16T00:21:33;15.80;99.00
1700;DHT22;847;48.058;7.810;2022-10-16T00:24:02;15.80;99.00
1700;DHT22;847;48.058;7.810;2022-10-16T00:26:31;15.80;99.00
1700;DHT22;847;48.058;7.810;2022-10-16T00:29:00;15.80;99.00
1700;DHT22;847;48.058;7.810;2022-10-16T00:31:27;15.80;99.00
1700;DHT22;847;48.058;7.810;2022-10-16T00:33:54;15.80;99.00
1700;DHT22;847;48.058;7.810;2022-10-16T00:36:22;15.80;99.00
1700;DHT22;847;48.058;7.810;2022-10-16T00:38:50;15.80;99.00
1700;DHT22;847;48.058;7.810;2022-10-16T00:41:21;15.80;99.00
1700;DHT22;847;48.058;7.810;2022-10-16T00:43:50;15.80;99.00
1700;DHT22;847;48.058;7.810;2022-10-16T00:46:20;15.80;99.00
1700;DHT22;847;48.058;7.810;2022-10-16T00:48:51;15.80;99.00
1700;DHT22;847;48.058;7.810;2022-10-16T00:51:21;15.70;99.00
1700;DHT22;847;48.058;7.810;2022-10-16T00:53:50;15.70;99.00
1700;DHT22;847;48.058;7.810;2022-10-16T00:56:17;15.70;99.00
1700;DHT22;847;48.058;7.810;2022-10-16T00:58:44;15.70;99.00
1700;DHT22;847;48.058;7.810;2022-10-16T01:01:11;15.70;99.00
1700;DHT22;847;48.058;7.810;2022-10-16T01:03:40;15.70;99.00
1700;DHT22;847;48.058;7.810;2022-10-16T01:06:23;15.70;99.00
1700;DHT22;847;48.058;7.810;2022-10-16T01:09:00;15.80;99.00
1700;DHT22;847;48.058;7.810;2022-10-16T01:11:33;15.80;99.00
1700;DHT22;847;48.058;7.810;2022-10-16T01:14:06;15.80;99.00
1700;DHT22;847;48.058;7.810;2022-10-16T01:16:40;15.80;99.00
1700;DHT22;847;48.058;7.810;2022-10-16T01:19:14;15.80;99.00
1700;DHT22;847;48.058;7.810;2022-10-16T01:21:45;15.80;99.00
1700;DHT22;847;48.058;7.810;2022-10-16T01:24:20;15.70;99.00
1700;DHT22;847;48.058;7.810;2022-10-16T01:27:11;15.70;99.00
1700;DHT22;847;48.058;7.810;2022-10-16T01:29:44;15.70;99.00
1700;DHT22;847;48.058;7.810;2022-10-16T01:32:17;15.70;99.00
1700;DHT22;847;48.058;7.810;2022-10-16T01:34:49;15.70;99.00
1700;DHT22;847;48.058;7.810;2022-10-16T01:37:25;15.70;99.00
1700;DHT22;847;48.058;7.810;2022-10-16T01:39:57;15.70;99.00
1700;DHT22;847;48.058;7.810;2022-10-16T01:42:30;15.70;99.00
1700;DHT22;847;48.058;7.810;2022-10-16T01:45:01;15.60;99.00
1700;DHT22;847;48.058;7.810;2022-10-16T01:47:30;15.60;99.00
1700;DHT22;847;48.058;7.810;2022-10-16T01:49:58;15.60;99.00
1700;DHT22;847;48.058;7.810;2022-10-16T01:52:27;15.60;99.00
1700;DHT22;847;48.058;7.810;2022-10-16T01:54:56;15.60;99.00
1700;DHT22;847;48.058;7.810;2022-10-16T01:57:26;15.60;99.00
1700;DHT22;847;48.058;7.810;2022-10-16T01:59:56;15.60;99.00
1700;DHT22;847;48.058;7.810;2022-10-16T02:02:26;15.60;99.00
1700;DHT22;847;48.058;7.810;2022-10-16T02:04:58;15.60;99.00
1700;DHT22;847;48.058;7.810;2022-10-16T02:07:26;15.60;99.00
1700;DHT22;847;48.058;7.810;2022-10-16T02:09:54;15.60;99.00
1700;DHT22;847;48.058;7.810;2022-10-16T02:12:26;15.50;99.00
1700;DHT22;847;48.058;7.810;2022-10-16T02:14:54;15.50;99.00
1700;DHT22;847;48.058;7.810;2022-10-16T02:17:21;15.40;99.00
1700;DHT22;847;48.058;7.810;2022-10-16T02:19:50;15.50;99.00
1700;DHT22;847;48.058;7.810;2022-10-16T02:22:24;15.40;99.00
1700;DHT22;847;48.058;7.810;2022-10-16T02:24:54;15.30;99.00
1700;DHT22;847;48.058;7.810;2022-10-16T02:27:29;15.40;99.00
1700;DHT22;847;48.058;7.810;2022-10-16T02:30:05;15.30;99.00
1700;DHT22;847;48.058;7.810;2022-10-16T02:32:36;15.30;99.00
1700;DHT22;847;48.058;7.810;2022-10-16T02:35:04;15.20;99.00
1700;DHT22;847;48.058;7.810;2022-10-16T02:37:32;15.30;99.00
1700;DHT22;847;48.058;7.810;2022-10-16T02:39:59;15.30;99.00
1700;DHT22;847;48.058;7.810;2022-10-16T02:42:31;15.20;99.00
1700;DHT22;847;48.058;7.810;2022-10-16T02:44:59;15.20;99.00
1700;DHT22;847;48.058;7.810;2022-10-16T02:47:26;15.30;99.00
1700;DHT22;847;48.058;7.810;2022-10-16T02:49:53;15.30;99.00
1700;DHT22;847;48.058;7.810;2022-10-16T02:52:20;15.30;99.00
1700;DHT22;847;48.058;7.810;2022-10-16T02:54:47;15.20;99.00
1700;DHT22;847;48.058;7.810;2022-10-16T02:57:13;15.20;99.00
1700;DHT22;847;48.058;7.810;2022-10-16T02:59:42;15.20;99.00
1700;DHT22;847;48.058;7.810;2022-10-16T03:02:09;15.20;99.00
1700;DHT22;847;48.058;7.810;2022-10-16T03:04:36;15.30;99.00
1700;DHT22;847;48.058;7.810;2022-10-16T03:07:03;15.30;99.00
1700;DHT22;847;48.058;7.810;2022-10-16T03:09:30;15.30;99.00
1700;DHT22;847;48.058;7.810;2022-10-16T03:11:57;15.30;99.00
1700;DHT22;847;48.058;7.810;2022-10-16T03:14:23;15.30;99.00
1700;DHT22;847;48.058;7.810;2022-10-16T03:16:51;15.30;99.00
1700;DHT22;847;48.058;7.810;2022-10-16T03:19:18;15.30;99.00
1700;DHT22;847;48.058;7.810;2022-10-16T03:21:45;15.30;99.00
1700;DHT22;847;48.058;7.810;2022-10-16T03:24:12;15.30;99.00
1700;DHT22;847;48.058;7.810;2022-10-16T03:26:39;15.30;99.00
1700;DHT22;847;48.058;7.810;2022-10-16T03:29:06;15.40;99.00
1700;DHT22;847;48.058;7.810;2022-10-16T03:31:33;15.40;99.00
1700;DHT22;847;48.058;7.810;2022-10-16T03:34:01;15.40;99.00
1700;DHT22;847;48.058;7.810;2022-10-16T03:36:27;15.30;99.00
1700;DHT22;847;48.058;7.810;2022-10-16T03:38:55;15.30;99.00
1700;DHT22;847;48.058;7.810;2022-10-16T03:41:21;15.30;99.00
1700;DHT22;847;48.058;7.810;2022-10-16T03:43:48;15.30;99.00
1700;DHT22;847;48.058;7.810;2022-10-16T03:46:15;15.20;99.00
1700;DHT22;847;48.058;7.810;2022-10-16T03:48:41;15.20;99.00
1700;DHT22;847;48.058;7.810;2022-10-16T03:51:10;15.20;99.00
1700;DHT22;847;48.058;7.810;2022-10-16T03:53:36;15.20;99.00
1700;DHT22;847;48.058;7.810;2022-10-16T03:56:03;15.20;99.00
1700;DHT22;847;48.058;7.810;2022-10-16T03:58:30;15.20;99.00
1700;DHT22;847;48.058;7.810;2022-10-16T04:00:57;15.20;99.00
1700;DHT22;847;48.058;7.810;2022-10-16T04:03:24;15.20;99.00
1700;DHT22;847;48.058;7.810;2022-10-16T04:05:51;15.20;99.00
1700;DHT22;847;48.058;7.810;2022-10-16T04:08:19;15.20;99.00
1700;DHT22;847;48.058;7.810;2022-10-16T04:10:45;15.10;99.00
1700;DHT22;847;48.058;7.810;2022-10-16T04:13:12;15.10;99.00
1700;DHT22;847;48.058;7.810;2022-10-16T04:15:39;15.10;99.00
1700;DHT22;847;48.058;7.810;2022-10-16T04:18:06;15.20;99.00
1700;DHT22;847;48.058;7.810;2022-10-16T04:20:33;15.20;99.00
1700;DHT22;847;48.058;7.810;2022-10-16T04:23:00;15.20;99.00
1700;DHT22;847;48.058;7.810;2022-10-16T04:25:28;15.20;99.00
1700;DHT22;847;48.058;7.810;2022-10-16T04:27:55;15.20;99.00
1700;DHT22;847;48.058;7.810;2022-10-16T04:30:22;15.10;99.00
1700;DHT22;847;48.058;7.810;2022-10-16T04:32:49;15.20;99.00
1700;DHT22;847;48.058;7.810;2022-10-16T04:35:16;15.20;99.00
1700;DHT22;847;48.058;7.810;2022-10-16T04:37:43;15.20;99.00
1700;DHT22;847;48.058;7.810;2022-10-16T04:40:10;15.20;99.00
1700;DHT22;847;48.058;7.810;2022-10-16T04:42:38;15.20;99.00
1700;DHT22;847;48.058;7.810;2022-10-16T04:45:05;15.20;99.00
1700;DHT22;847;48.058;7.810;2022-10-16T04:47:33;15.20;99.00
1700;DHT22;847;48.058;7.810;2022-10-16T04:49:59;15.20;99.00
1700;DHT22;847;48.058;7.810;2022-10-16T04:52:28;15.20;99.00
1700;DHT22;847;48.058;7.810;2022-10-16T04:54:54;15.20;99.00
1700;DHT22;847;48.058;7.810;2022-10-16T04:57:26;15.20;99.00
1700;DHT22;847;48.058;7.810;2022-10-16T04:59:54;15.20;99.00
1700;DHT22;847;48.058;7.810;2022-10-16T05:02:21;15.20;99.00
1700;DHT22;847;48.058;7.810;2022-10-16T05:04:48;15.10;99.00
1700;DHT22;847;48.058;7.810;2022-10-16T05:07:14;15.10;99.00
1700;DHT22;847;48.058;7.810;2022-10-16T05:09:41;15.10;99.00
1700;DHT22;847;48.058;7.810;2022-10-16T05:12:08;15.10;99.00
1700;DHT22;847;48.058;7.810;2022-10-16T05:14:35;15.10;99.00
1700;DHT22;847;48.058;7.810;2022-10-16T05:17:03;15.10;99.00
1700;DHT22;847;48.058;7.810;2022-10-16T05:19:30;15.10;99.00
1700;DHT22;847;48.058;7.810;2022-10-16T05:21:57;15.20;99.00
1700;DHT22;847;48.058;7.810;2022-10-16T05:24:24;15.20;99.00
1700;DHT22;847;48.058;7.810;2022-10-16T05:26:51;15.20;99.00
1700;DHT22;847;48.058;7.810;2022-10-16T05:29:18;15.20;99.00
1700;DHT22;847;48.058;7.810;2022-10-16T05:31:44;15.20;99.00
1700;DHT22;847;48.058;7.810;2022-10-16T05:34:13;15.20;99.00
1700;DHT22;847;48.058;7.810;2022-10-16T05:36:39;15.20;99.00
1700;DHT22;847;48.058;7.810;2022-10-16T05:39:06;15.20;99.00
1700;DHT22;847;48.058;7.810;2022-10-16T05:41:33;15.20;99.00
1700;DHT22;847;48.058;7.810;2022-10-16T05:44:00;15.30;99.00
1700;DHT22;847;48.058;7.810;2022-10-16T05:46:26;15.20;99.00
1700;DHT22;847;48.058;7.810;2022-10-16T05:48:53;15.20;99.00
1700;DHT22;847;48.058;7.810;2022-10-16T05:51:21;15.20;99.00
1700;DHT22;847;48.058;7.810;2022-10-16T05:53:48;15.20;99.00
1700;DHT22;847;48.058;7.810;2022-10-16T05:56:15;15.30;99.00
1700;DHT22;847;48.058;7.810;2022-10-16T05:58:42;15.20;99.00
1700;DHT22;847;48.058;7.810;2022-10-16T06:01:11;15.20;99.00
1700;DHT22;847;48.058;7.810;2022-10-16T06:03:38;15.20;99.00
1700;DHT22;847;48.058;7.810;2022-10-16T06:06:08;15.20;99.00
1700;DHT22;847;48.058;7.810;2022-10-16T06:08:37;15.20;99.00
1700;DHT22;847;48.058;7.810;2022-10-16T06:11:06;15.20;99.00
1700;DHT22;847;48.058;7.810;2022-10-16T06:13:32;15.20;99.00
1700;DHT22;847;48.058;7.810;2022-10-16T06:16:00;15.20;99.00
1700;DHT22;847;48.058;7.810;2022-10-16T06:18:28;15.20;99.00
1700;DHT22;847;48.058;7.810;2022-10-16T06:20:55;15.20;99.00
1700;DHT22;847;48.058;7.810;2022-10-16T06:23:22;15.20;99.00
1700;DHT22;847;48.058;7.810;2022-10-16T06:25:50;15.20;99.00
1700;DHT22;847;48.058;7.810;2022-10-16T06:28:17;15.20;99.00
1700;DHT22;847;48.058;7.810;2022-10-16T06:30:44;15.20;99.00
1700;DHT22;847;48.058;7.810;2022-10-16T06:33:11;15.10;99.00
1700;DHT22;847;48.058;7.810;2022-10-16T06:35:38;15.10;99.00
1700;DHT22;847;48.058;7.810;2022-10-16T06:38:04;15.20;99.00
1700;DHT22;847;48.058;7.810;2022-10-16T06:40:31;15.20;99.00
1700;DHT22;847;48.058;7.810;2022-10-16T06:43:00;15.20;99.00
1700;DHT22;847;48.058;7.810;2022-10-16T06:45:26;15.20;99.00
1700;DHT22;847;48.058;7.810;2022-10-16T06:47:53;15.30;99.00
1700;DHT22;847;48.058;7.810;2022-10-16T06:50:20;15.30;99.00
1700;DHT22;847;48.058;7.810;2022-10-16T06:52:47;15.30;99.00
1700;DHT22;847;48.058;7.810;2022-10-16T06:55:13;15.30;99.00
1700;DHT22;847;48.058;7.810;2022-10-16T06:57:42;15.40;99.00
1700;DHT22;847;48.058;7.810;2022-10-16T07:00:11;15.40;99.00
1700;DHT22;847;48.058;7.810;2022-10-16T07:02:38;15.40;99.00
1700;DHT22;847;48.058;7.810;2022-10-16T07:05:05;15.40;99.00
1700;DHT22;847;48.058;7.810;2022-10-16T07:07:32;15.40;99.00
1700;DHT22;847;48.058;7.810;2022-10-16T07:09:59;15.30;99.00
1700;DHT22;847;48.058;7.810;2022-10-16T07:12:25;15.30;99.00
1700;DHT22;847;48.058;7.810;2022-10-16T07:14:52;15.30;99.00
1700;DHT22;847;48.058;7.810;2022-10-16T07:17:21;15.40;99.00
1700;DHT22;847;48.058;7.810;2022-10-16T07:19:48;15.40;99.00
1700;DHT22;847;48.058;7.810;2022-10-16T07:22:15;15.50;99.00
1700;DHT22;847;48.058;7.810;2022-10-16T07:24:41;15.50;99.00
1700;DHT22;847;48.058;7.810;2022-10-16T07:27:09;15.50;99.00
1700;DHT22;847;48.058;7.810;2022-10-16T07:29:35;15.60;99.00
1700;DHT22;847;48.058;7.810;2022-10-16T07:32:02;15.60;99.00
1700;DHT22;847;48.058;7.810;2022-10-16T07:34:31;15.70;99.00
1700;DHT22;847;48.058;7.810;2022-10-16T07:36:57;15.70;99.00
1700;DHT22;847;48.058;7.810;2022-10-16T07:39:24;15.70;99.00
1700;DHT22;847;48.058;7.810;2022-10-16T07:41:51;15.70;99.00
1700;DHT22;847;48.058;7.810;2022-10-16T07:44:18;15.80;99.00
1700;DHT22;847;48.058;7.810;2022-10-16T07:46:44;15.80;99.00
1700;DHT22;847;48.058;7.810;2022-10-16T07:49:11;15.80;99.00
1700;DHT22;847;48.058;7.810;2022-10-16T07:51:39;15.90;99.00
1700;DHT22;847;48.058;7.810;2022-10-16T07:54:08;15.90;99.00
1700;DHT22;847;48.058;7.810;2022-10-16T07:56:35;15.90;99.00
1700;DHT22;847;48.058;7.810;2022-10-16T07:59:01;15.90;99.00
1700;DHT22;847;48.058;7.810;2022-10-16T08:01:28;15.90;99.00
1700;DHT22;847;48.058;7.810;2022-10-16T08:03:55;15.90;99.00
1700;DHT22;847;48.058;7.810;2022-10-16T08:06:22;15.90;99.00
1700;DHT22;847;48.058;7.810;2022-10-16T08:08:50;16.00;99.00
1700;DHT22;847;48.058;7.810;2022-10-16T08:11:17;16.00;99.00
1700;DHT22;847;48.058;7.810;2022-10-16T08:13:44;16.00;99.00
1700;DHT22;847;48.058;7.810;2022-10-16T08:16:11;16.00;99.00
1700;DHT22;847;48.058;7.810;2022-10-16T08:18:39;16.10;99.00
1700;DHT22;847;48.058;7.810;2022-10-16T08:21:07;16.10;99.00
1700;DHT22;847;48.058;7.810;2022-10-16T08:23:34;16.10;99.00
1700;DHT22;847;48.058;7.810;2022-10-16T08:26:06;16.10;99.00
1700;DHT22;847;48.058;7.810;2022-10-16T08:28:34;16.10;99.00
1700;DHT22;847;48.058;7.810;2022-10-16T08:31:08;16.10;99.00
1700;DHT22;847;48.058;7.810;2022-10-16T08:33:35;16.20;99.00
1700;DHT22;847;48.058;7.810;2022-10-16T08:36:03;16.20;99.00
1700;DHT22;847;48.058;7.810;2022-10-16T08:38:30;16.20;99.00
1700;DHT22;847;48.058;7.810;2022-10-16T08:41:13;16.20;99.00
1700;DHT22;847;48.058;7.810;2022-10-16T08:46:42;16.30;99.00
1700;DHT22;847;48.058;7.810;2022-10-16T08:49:13;16.30;99.00
1700;DHT22;847;48.058;7.810;2022-10-16T08:51:40;16.30;99.00
1700;DHT22;847;48.058;7.810;2022-10-16T08:54:21;16.40;99.00
1700;DHT22;847;48.058;7.810;2022-10-16T08:56:55;16.40;99.00
1700;DHT22;847;48.058;7.810;2022-10-16T08:59:23;16.40;99.00
1700;DHT22;847;48.058;7.810;2022-10-16T09:01:50;16.40;99.00
1700;DHT22;847;48.058;7.810;2022-10-16T09:04:46;16.40;99.00
1700;DHT22;847;48.058;7.810;2022-10-16T09:07:21;16.50;99.00
1700;DHT22;847;48.058;7.810;2022-10-16T09:10:02;16.50;99.00
1700;DHT22;847;48.058;7.810;2022-10-16T09:12:38;16.50;99.00
1700;DHT22;847;48.058;7.810;2022-10-16T09:15:16;16.50;99.00
1700;DHT22;847;48.058;7.810;2022-10-16T09:17:52;16.50;99.00
1700;DHT22;847;48.058;7.810;2022-10-16T09:20:28;16.60;99.00
1700;DHT22;847;48.058;7.810;2022-10-16T09:23:12;16.60;99.00
1700;DHT22;847;48.058;7.810;2022-10-16T09:25:42;16.60;99.00
1700;DHT22;847;48.058;7.810;2022-10-16T09:28:11;16.70;99.00
1700;DHT22;847;48.058;7.810;2022-10-16T09:30:38;16.80;99.00
1700;DHT22;847;48.058;7.810;2022-10-16T09:33:06;17.00;99.00
1700;DHT22;847;48.058;7.810;2022-10-16T09:35:37;17.00;99.00
1700;DHT22;847;48.058;7.810;2022-10-16T09:38:05;17.10;99.00
1700;DHT22;847;48.058;7.810;2022-10-16T09:40:34;17.20;99.00
1700;DHT22;847;48.058;7.810;2022-10-16T09:43:14;17.30;99.00
1700;DHT22;847;48.058;7.810;2022-10-16T09:45:43;17.40;99.00
1700;DHT22;847;48.058;7.810;2022-10-16T09:48:20;17.50;99.00
1700;DHT22;847;48.058;7.810;2022-10-16T09:50:55;17.50;99.00
1700;DHT22;847;48.058;7.810;2022-10-16T09:53:22;17.50;99.00
1700;DHT22;847;48.058;7.810;2022-10-16T09:55:52;17.60;99.00
1700;DHT22;847;48.058;7.810;2022-10-16T09:58:22;17.70;99.00
1700;DHT22;847;48.058;7.810;2022-10-16T10:00:51;17.80;99.00
1700;DHT22;847;48.058;7.810;2022-10-16T10:03:34;17.90;99.00
1700;DHT22;847;48.058;7.810;2022-10-16T10:06:06;18.00;99.00
1700;DHT22;847;48.058;7.810;2022-10-16T10:08:33;18.00;99.00
1700;DHT22;847;48.058;7.810;2022-10-16T10:11:00;18.10;99.00
1700;DHT22;847;48.058;7.810;2022-10-16T10:13:28;18.10;99.00
1700;DHT22;847;48.058;7.810;2022-10-16T10:15:55;18.10;99.00
1700;DHT22;847;48.058;7.810;2022-10-16T10:18:22;18.10;99.00
1700;DHT22;847;48.058;7.810;2022-10-16T10:20:58;18.20;99.00
1700;DHT22;847;48.058;7.810;2022-10-16T10:23:26;18.30;99.00
1700;DHT22;847;48.058;7.810;2022-10-16T10:25:57;18.40;99.00
1700;DHT22;847;48.058;7.810;2022-10-16T10:28:51;18.40;99.00
1700;DHT22;847;48.058;7.810;2022-10-16T10:31:26;18.50;99.00
1700;DHT22;847;48.058;7.810;2022-10-16T10:33:59;18.50;99.00
1700;DHT22;847;48.058;7.810;2022-10-16T10:36:34;18.70;99.00
1700;DHT22;847;48.058;7.810;2022-10-16T10:39:05;18.80;99.00
1700;DHT22;847;48.058;7.810;2022-10-16T10:44:42;19.00;99.00
1700;DHT22;847;48.058;7.810;2022-10-16T10:47:22;19.10;99.00
1700;DHT22;847;48.058;7.810;2022-10-16T10:49:59;19.20;99.00
1700;DHT22;847;48.058;7.810;2022-10-16T10:52:37;19.20;99.00
1700;DHT22;847;48.058;7.810;2022-10-16T10:55:17;19.30;99.00
1700;DHT22;847;48.058;7.810;2022-10-16T10:57:59;19.30;99.00
1700;DHT22;847;48.058;7.810;2022-10-16T11:00:42;19.40;99.00
1700;DHT22;847;48.058;7.810;2022-10-16T11:03:22;19.50;99.00
1700;DHT22;847;48.058;7.810;2022-10-16T11:05:58;19.60;99.00
1700;DHT22;847;48.058;7.810;2022-10-16T11:08:31;19.60;99.00
1700;DHT22;847;48.058;7.810;2022-10-16T11:11:03;19.60;99.00
1700;DHT22;847;48.058;7.810;2022-10-16T11:13:33;19.60;99.00
1700;DHT22;847;48.058;7.810;2022-10-16T11:16:12;19.70;99.00
1700;DHT22;847;48.058;7.810;2022-10-16T11:18:46;19.70;99.00
1700;DHT22;847;48.058;7.810;2022-10-16T11:21:18;19.70;99.00
1700;DHT22;847;48.058;7.810;2022-10-16T11:23:48;19.80;99.00
1700;DHT22;847;48.058;7.810;2022-10-16T11:26:20;19.70;99.00
1700;DHT22;847;48.058;7.810;2022-10-16T11:28:49;19.80;99.00
1700;DHT22;847;48.058;7.810;2022-10-16T11:31:23;19.90;99.00
1700;DHT22;847;48.058;7.810;2022-10-16T11:33:56;19.90;99.00
1700;DHT22;847;48.058;7.810;2022-10-16T11:36:32;20.00;99.00
1700;DHT22;847;48.058;7.810;2022-10-16T11:39:04;20.00;99.00
1700;DHT22;847;48.058;7.810;2022-10-16T11:41:37;20.00;99.00
1700;DHT22;847;48.058;7.810;2022-10-16T11:44:15;20.00;99.00
1700;DHT22;847;48.058;7.810;2022-10-16T11:46:51;20.10;99.00
1700;DHT22;847;48.058;7.810;2022-10-16T11:49:22;20.20;98.70
1700;DHT22;847;48.058;7.810;2022-10-16T11:51:59;20.30;98.80
1700;DHT22;847;48.058;7.810;2022-10-16T11:54:33;20.30;98.30
1700;DHT22;847;48.058;7.810;2022-10-16T11:57:09;20.30;97.30
1700;DHT22;847;48.058;7.810;2022-10-16T11:59:42;20.30;96.00
1700;DHT22;847;48.058;7.810;2022-10-16T12:02:30;20.30;96.70
1700;DHT22;847;48.058;7.810;2022-10-16T12:05:09;20.40;96.50
1700;DHT22;847;48.058;7.810;2022-10-16T12:07:44;20.50;93.40
1700;DHT22;847;48.058;7.810;2022-10-16T12:10:20;20.50;91.80
1700;DHT22;847;48.058;7.810;2022-10-16T12:12:48;20.70;90.10
1700;DHT22;847;48.058;7.810;2022-10-16T12:15:23;20.70;90.50
1700;DHT22;847;48.058;7.810;2022-10-16T12:17:53;20.80;91.00
1700;DHT22;847;48.058;7.810;2022-10-16T12:20:24;20.90;91.50
1700;DHT22;847;48.058;7.810;2022-10-16T12:22:53;21.00;91.60
1700;DHT22;847;48.058;7.810;2022-10-16T12:25:23;21.00;89.80
1700;DHT22;847;48.058;7.810;2022-10-16T12:27:59;21.20;87.00
1700;DHT22;847;48.058;7.810;2022-10-16T12:30:28;21.20;87.00
1700;DHT22;847;48.058;7.810;2022-10-16T12:32:59;21.20;87.50
1700;DHT22;847;48.058;7.810;2022-10-16T12:35:29;21.20;87.90
1700;DHT22;847;48.058;7.810;2022-10-16T12:38:06;21.20;87.40
1700;DHT22;847;48.058;7.810;2022-10-16T12:40:35;21.20;88.80
1700;DHT22;847;48.058;7.810;2022-10-16T12:43:25;21.30;86.90
1700;DHT22;847;48.058;7.810;2022-10-16T12:46:04;21.30;87.80
1700;DHT22;847;48.058;7.810;2022-10-16T12:48:32;21.30;89.30
1700;DHT22;847;48.058;7.810;2022-10-16T12:51:10;21.20;88.50
1700;DHT22;847;48.058;7.810;2022-10-16T12:53:38;21.30;88.10
1700;DHT22;847;48.058;7.810;2022-10-16T12:56:14;21.30;88.00
1700;DHT22;847;48.058;7.810;2022-10-16T12:58:56;21.50;88.40
1700;DHT22;847;48.058;7.810;2022-10-16T13:01:38;21.40;88.80
1700;DHT22;847;48.058;7.810;2022-10-16T13:07:05;21.30;86.10
1700;DHT22;847;48.058;7.810;2022-10-16T13:09:42;21.40;83.90
1700;DHT22;847;48.058;7.810;2022-10-16T13:12:33;21.50;85.40
1700;DHT22;847;48.058;7.810;2022-10-16T13:15:19;21.40;85.30
1700;DHT22;847;48.058;7.810;2022-10-16T13:17:55;21.50;85.20
1700;DHT22;847;48.058;7.810;2022-10-16T13:20:31;21.50;83.80
1700;DHT22;847;48.058;7.810;2022-10-16T13:23:05;21.60;82.60
1700;DHT22;847;48.058;7.810;2022-10-16T13:25:44;21.60;82.90
1700;DHT22;847;48.058;7.810;2022-10-16T13:28:14;21.70;82.70
1700;DHT22;847;48.058;7.810;2022-10-16T13:30:44;21.70;82.00
1700;DHT22;847;48.058;7.810;2022-10-16T13:33:19;21.70;80.80
1700;DHT22;847;48.058;7.810;2022-10-16T13:35:50;21.70;81.40
1700;DHT22;847;48.058;7.810;2022-10-16T13:38:19;21.70;80.60
1700;DHT22;847;48.058;7.810;2022-10-16T13:40:54;21.70;81.00
1700;DHT22;847;48.058;7.810;2022-10-16T13:43:25;21.70;81.00
1700;DHT22;847;48.058;7.810;2022-10-16T13:45:54;21.70;80.10
1700;DHT22;847;48.058;7.810;2022-10-16T13:48:20;21.80;81.10
1700;DHT22;847;48.058;7.810;2022-10-16T13:51:00;21.90;80.00
1700;DHT22;847;48.058;7.810;2022-10-16T13:53:27;21.90;80.80
1700;DHT22;847;48.058;7.810;2022-10-16T13:55:56;21.90;80.00
1700;DHT22;847;48.058;7.810;2022-10-16T13:58:23;21.90;79.70
1700;DHT22;847;48.058;7.810;2022-10-16T14:00:55;22.00;79.40
1700;DHT22;847;48.058;7.810;2022-10-16T14:03:23;22.00;79.50
1700;DHT22;847;48.058;7.810;2022-10-16T14:05:52;22.00;78.40
1700;DHT22;847;48.058;7.810;2022-10-16T14:08:24;22.00;79.90
1700;DHT22;847;48.058;7.810;2022-10-16T14:10:54;22.00;79.90
1700;DHT22;847;48.058;7.810;2022-10-16T14:13:30;22.10;78.00
1700;DHT22;847;48.058;7.810;2022-10-16T14:16:00;22.20;78.60
1700;DHT22;847;48.058;7.810;2022-10-16T14:18:29;22.10;79.70
1700;DHT22;847;48.058;7.810;2022-10-16T14:21:03;22.00;80.50
1700;DHT22;847;48.058;7.810;2022-10-16T14:23:34;21.90;80.50
1700;DHT22;847;48.058;7.810;2022-10-16T14:26:13;21.90;80.70
1700;DHT22;847;48.058;7.810;2022-10-16T14:28:41;21.80;80.40
1700;DHT22;847;48.058;7.810;2022-10-16T14:31:27;21.80;80.50
1700;DHT22;847;48.058;7.810;2022-10-16T14:33:55;21.90;79.40
1700;DHT22;847;48.058;7.810;2022-10-16T14:36:22;21.90;77.30
1700;DHT22;847;48.058;7.810;2022-10-16T14:38:58;22.10;77.50
1700;DHT22;847;48.058;7.810;2022-10-16T14:41:26;22.20;79.30
1700;DHT22;847;48.058;7.810;2022-10-16T14:43:55;22.20;80.00
1700;DHT22;847;48.058;7.810;2022-10-16T14:46:29;22.20;79.90
1700;DHT22;847;48.058;7.810;2022-10-16T14:49:00;22.20;80.70
1700;DHT22;847;48.058;7.810;2022-10-16T14:51:29;22.10;79.70
1700;DHT22;847;48.058;7.810;2022-10-16T14:53:57;22.20;77.00
1700;DHT22;847;48.058;7.810;2022-10-16T14:56:25;22.20;75.10
1700;DHT22;847;48.058;7.810;2022-10-16T14:58:55;22.20;78.50
1700;DHT22;847;48.058;7.810;2022-10-16T15:01:22;22.30;78.60
1700;DHT22;847;48.058;7.810;2022-10-16T15:03:48;22.30;77.50
1700;DHT22;847;48.058;7.810;2022-10-16T15:06:17;22.30;76.30
1700;DHT22;847;48.058;7.810;2022-10-16T15:08:44;22.20;79.10
1700;DHT22;847;48.058;7.810;2022-10-16T15:11:14;22.30;81.10
1700;DHT22;847;48.058;7.810;2022-10-16T15:13:42;22.30;80.80
1700;DHT22;847;48.058;7.810;2022-10-16T15:16:11;22.30;80.40
1700;DHT22;847;48.058;7.810;2022-10-16T15:18:38;22.30;80.10
1700;DHT22;847;48.058;7.810;2022-10-16T15:21:05;22.40;77.90
1700;DHT22;847;48.058;7.810;2022-10-16T15:23:32;22.40;78.10
1700;DHT22;847;48.058;7.810;2022-10-16T15:25:59;22.30;77.10
1700;DHT22;847;48.058;7.810;2022-10-16T15:28:27;22.30;77.30
1700;DHT22;847;48.058;7.810;2022-10-16T15:30:55;22.20;81.10
1700;DHT22;847;48.058;7.810;2022-10-16T15:33:24;22.20;80.30
1700;DHT22;847;48.058;7.810;2022-10-16T15:35:53;22.20;81.40
1700;DHT22;847;48.058;7.810;2022-10-16T15:38:21;22.10;82.60
1700;DHT22;847;48.058;7.810;2022-10-16T15:40:49;22.10;83.50
1700;DHT22;847;48.058;7.810;2022-10-16T15:43:16;22.10;85.30
1700;DHT22;847;48.058;7.810;2022-10-16T15:45:58;22.00;87.10
1700;DHT22;847;48.058;7.810;2022-10-16T15:48:25;21.90;88.00
1700;DHT22;847;48.058;7.810;2022-10-16T15:50:52;21.80;89.30
1700;DHT22;847;48.058;7.810;2022-10-16T15:53:18;21.70;90.60
1700;DHT22;847;48.058;7.810;2022-10-16T15:55:45;21.60;91.60
1700;DHT22;847;48.058;7.810;2022-10-16T15:58:12;21.50;92.30
1700;DHT22;847;48.058;7.810;2022-10-16T16:00:38;21.50;93.70
1700;DHT22;847;48.058;7.810;2022-10-16T16:03:07;21.40;94.00
1700;DHT22;847;48.058;7.810;2022-10-16T16:05:37;21.30;94.40
1700;DHT22;847;48.058;7.810;2022-10-16T16:08:04;21.20;95.80
1700;DHT22;847;48.058;7.810;2022-10-16T16:10:31;21.20;96.50
1700;DHT22;847;48.058;7.810;2022-10-16T16:12:58;21.10;96.60
1700;DHT22;847;48.058;7.810;2022-10-16T16:15:25;21.00;96.60
1700;DHT22;847;48.058;7.810;2022-10-16T16:17:51;21.00;96.00
1700;DHT22;847;48.058;7.810;2022-10-16T16:20:20;21.00;95.80
1700;DHT22;847;48.058;7.810;2022-10-16T16:22:47;21.00;95.40
1700;DHT22;847;48.058;7.810;2022-10-16T16:25:13;21.00;95.40
1700;DHT22;847;48.058;7.810;2022-10-16T16:27:40;21.00;95.60
1700;DHT22;847;48.058;7.810;2022-10-16T16:30:09;20.90;96.10
1700;DHT22;847;48.058;7.810;2022-10-16T16:32:36;20.90;96.70
1700;DHT22;847;48.058;7.810;2022-10-16T16:35:03;20.90;96.70
1700;DHT22;847;48.058;7.810;2022-10-16T16:37:32;20.80;97.10
1700;DHT22;847;48.058;7.810;2022-10-16T16:39:58;20.80;97.10
1700;DHT22;847;48.058;7.810;2022-10-16T16:42:25;20.70;96.90
1700;DHT22;847;48.058;7.810;2022-10-16T16:44:52;20.70;96.90